sensor_id;sensor_type;location;lat;lon;timestamp;P1;durP1;ratioP1;P2;durP2;ratioP2
50651;SDS011;61429;52.086;5.240;2022-09-27T00:02:49;5.2;;;1.5;;
50651;SDS011;61429;52.086;5.240;2022-09-27T00:04:26;4.8;;;1.5;;
50651;SDS011;61429;52.086;5.240;2022-09-27T00:06:05;6.3;;;1.4;;
50651;SDS011;61429;52.086;5.240;2022-09-27T00:09:21;4.3;;;1.3;;
50651;SDS011;61429;52.086;5.240;2022-09-27T00:10:58;3.6;;;1.4;;
50651;SDS011;61429;52.086;5.240;2022-09-27T00:12:36;3.2;;;1.4;;
50651;SDS011;61429;52.086;5.240;2022-09-27T00:14:14;3.8;;;1.3;;
50651;SDS011;61429;52.086;5.240;2022-09-27T00:17:32;5.8;;;1.5;;
50651;SDS011;61429;52.086;5.240;2022-09-27T00:19:09;3.8;;;1.3;;
50651;SDS011;61429;52.086;5.240;2022-09-27T00:20:48;3.7;;;1.4;;
50651;SDS011;61429;52.086;5.240;2022-09-27T00:24:02;4.1;;;1.6;;
50651;SDS011;61429;52.086;5.240;2022-09-27T00:25:38;4.1;;;1.3;;
50651;SDS011;61429;52.086;5.240;2022-09-27T00:27:15;3.5;;;1.6;;
50651;SDS011;61429;52.086;5.240;2022-09-27T00:28:52;3.2;;;1.3;;
50651;SDS011;61429;52.086;5.240;2022-09-27T00:32:04;5.7;;;1.8;;
50651;SDS011;61429;52.086;5.240;2022-09-27T00:33:40;3.1;;;1.2;;
50651;SDS011;61429;52.086;5.240;2022-09-27T00:35:16;3.8;;;1.5;;
50651;SDS011;61429;52.086;5.240;2022-09-27T00:38:28;4.41;;;1.3;;
50651;SDS011;61429;52.086;5.240;2022-09-27T00:40:05;4.41;;;1.3;;
50651;SDS011;61429;52.086;5.240;2022-09-27T00:41:42;5.0;;;1.5;;
50651;SDS011;61429;52.086;5.240;2022-09-27T00:44:59;5.3;;;1.5;;
50651;SDS011;61429;52.086;5.240;2022-09-27T00:46:46;4.61;;;1.4;;
50651;SDS011;61429;52.086;5.240;2022-09-27T00:48:27;4.1;;;1.3;;
50651;SDS011;61429;52.086;5.240;2022-09-27T00:50:08;3.6;;;1.6;;
50651;SDS011;61429;52.086;5.240;2022-09-27T00:51:55;4.2;;;1.3;;
50651;SDS011;61429;52.086;5.240;2022-09-27T00:55:19;3.3;;;1.4;;
50651;SDS011;61429;52.086;5.240;2022-09-27T00:57:01;3.4;;;1.3;;
50651;SDS011;61429;52.086;5.240;2022-09-27T00:58:40;3.7;;;1.3;;
50651;SDS011;61429;52.086;5.240;2022-09-27T01:00:24;5.3;;;1.4;;
50651;SDS011;61429;52.086;5.240;2022-09-27T01:03:39;5.3;;;1.6;;
50651;SDS011;61429;52.086;5.240;2022-09-27T01:05:26;4.3;;;1.6;;
50651;SDS011;61429;52.086;5.240;2022-09-27T01:07:03;4.0;;;1.6;;
50651;SDS011;61429;52.086;5.240;2022-09-27T01:08:40;4.2;;;1.4;;
50651;SDS011;61429;52.086;5.240;2022-09-27T01:11:56;2.7;;;1.3;;
50651;SDS011;61429;52.086;5.240;2022-09-27T01:13:46;4.8;;;1.5;;
50651;SDS011;61429;52.086;5.240;2022-09-27T01:15:36;5.9;;;1.5;;
50651;SDS011;61429;52.086;5.240;2022-09-27T01:19:16;3.5;;;1.3;;
50651;SDS011;61429;52.086;5.240;2022-09-27T01:21:17;5.3;;;1.6;;
50651;SDS011;61429;52.086;5.240;2022-09-27T01:23:27;4.0;;;1.5;;
50651;SDS011;61429;52.086;5.240;2022-09-27T01:26:34;5.9;;;1.6;;
50651;SDS011;61429;52.086;5.240;2022-09-27T01:28:45;4.61;;;1.6;;
50651;SDS011;61429;52.086;5.240;2022-09-27T01:30:34;4.41;;;1.5;;
50651;SDS011;61429;52.086;5.240;2022-09-27T01:32:20;4.41;;;1.5;;
50651;SDS011;61429;52.086;5.240;2022-09-27T01:34:06;4.61;;;1.6;;
50651;SDS011;61429;52.086;5.240;2022-09-27T01:35:57;4.7;;;1.5;;
50651;SDS011;61429;52.086;5.240;2022-09-27T01:37:49;5.5;;;1.8;;
50651;SDS011;61429;52.086;5.240;2022-09-27T01:41:27;3.9;;;1.5;;
50651;SDS011;61429;52.086;5.240;2022-09-27T01:43:13;4.91;;;1.7;;
50651;SDS011;61429;52.086;5.240;2022-09-27T01:44:57;6.8;;;2.0;;
50651;SDS011;61429;52.086;5.240;2022-09-27T01:46:40;4.8;;;1.7;;
50651;SDS011;61429;52.086;5.240;2022-09-27T01:48:23;3.9;;;1.5;;
50651;SDS011;61429;52.086;5.240;2022-09-27T01:51:49;3.1;;;1.4;;
50651;SDS011;61429;52.086;5.240;2022-09-27T01:53:32;5.0;;;1.6;;
50651;SDS011;61429;52.086;5.240;2022-09-27T01:55:13;3.9;;;1.5;;
50651;SDS011;61429;52.086;5.240;2022-09-27T01:56:54;6.8;;;1.9;;
50651;SDS011;61429;52.086;5.240;2022-09-27T02:00:20;5.4;;;1.6;;
50651;SDS011;61429;52.086;5.240;2022-09-27T02:01:59;5.11;;;1.6;;
50651;SDS011;61429;52.086;5.240;2022-09-27T02:05:24;3.1;;;1.5;;
50651;SDS011;61429;52.086;5.240;2022-09-27T02:07:05;3.9;;;1.7;;
50651;SDS011;61429;52.086;5.240;2022-09-27T02:10:29;4.1;;;1.6;;
50651;SDS011;61429;52.086;5.240;2022-09-27T02:12:10;4.41;;;1.6;;
50651;SDS011;61429;52.086;5.240;2022-09-27T02:13:52;6.1;;;1.8;;
50651;SDS011;61429;52.086;5.240;2022-09-27T02:15:35;4.0;;;1.8;;
50651;SDS011;61429;52.086;5.240;2022-09-27T02:19:17;7.1;;;1.9;;
50651;SDS011;61429;52.086;5.240;2022-09-27T02:21:03;5.0;;;1.7;;
50651;SDS011;61429;52.086;5.240;2022-09-27T02:22:46;5.8;;;1.7;;
50651;SDS011;61429;52.086;5.240;2022-09-27T02:24:31;3.4;;;1.4;;
50651;SDS011;61429;52.086;5.240;2022-09-27T02:26:19;4.2;;;1.6;;
50651;SDS011;61429;52.086;5.240;2022-09-27T02:27:59;4.7;;;1.7;;
50651;SDS011;61429;52.086;5.240;2022-09-27T02:31:34;3.7;;;1.8;;
50651;SDS011;61429;52.086;5.240;2022-09-27T02:33:10;3.7;;;1.8;;
50651;SDS011;61429;52.086;5.240;2022-09-27T02:34:46;7.4;;;2.21;;
50651;SDS011;61429;52.086;5.240;2022-09-27T02:36:25;6.9;;;2.21;;
50651;SDS011;61429;52.086;5.240;2022-09-27T02:39:42;5.3;;;2.0;;
50651;SDS011;61429;52.086;5.240;2022-09-27T02:41:20;3.0;;;1.8;;
50651;SDS011;61429;52.086;5.240;2022-09-27T02:42:57;4.5;;;1.9;;
50651;SDS011;61429;52.086;5.240;2022-09-27T02:46:32;6.5;;;1.7;;
50651;SDS011;61429;52.086;5.240;2022-09-27T02:48:38;5.5;;;1.9;;
50651;SDS011;61429;52.086;5.240;2022-09-27T02:50:30;5.11;;;2.1;;
50651;SDS011;61429;52.086;5.240;2022-09-27T02:53:25;5.6;;;1.5;;
50651;SDS011;61429;52.086;5.240;2022-09-27T02:55:19;6.0;;;1.9;;
50651;SDS011;61429;52.086;5.240;2022-09-27T02:58:57;6.0;;;1.9;;
50651;SDS011;61429;52.086;5.240;2022-09-27T03:00:45;6.0;;;1.9;;
50651;SDS011;61429;52.086;5.240;2022-09-27T03:02:31;4.7;;;1.8;;
50651;SDS011;61429;52.086;5.240;2022-09-27T03:04:13;5.3;;;1.7;;
50651;SDS011;61429;52.086;5.240;2022-09-27T03:05:57;5.5;;;1.9;;
50651;SDS011;61429;52.086;5.240;2022-09-27T03:09:17;4.1;;;1.8;;
50651;SDS011;61429;52.086;5.240;2022-09-27T03:10:54;5.11;;;1.7;;
50651;SDS011;61429;52.086;5.240;2022-09-27T03:12:30;6.0;;;1.8;;
50651;SDS011;61429;52.086;5.240;2022-09-27T03:14:08;5.9;;;2.0;;
50651;SDS011;61429;52.086;5.240;2022-09-27T03:17:20;4.61;;;2.0;;
50651;SDS011;61429;52.086;5.240;2022-09-27T03:18:56;7.5;;;2.0;;
50651;SDS011;61429;52.086;5.240;2022-09-27T03:20:33;4.8;;;1.7;;
50651;SDS011;61429;52.086;5.240;2022-09-27T03:23:46;6.6;;;2.0;;
50651;SDS011;61429;52.086;5.240;2022-09-27T03:25:22;5.4;;;1.8;;
50651;SDS011;61429;52.086;5.240;2022-09-27T03:26:58;8.31;;;2.1;;
50651;SDS011;61429;52.086;5.240;2022-09-27T03:30:11;6.3;;;2.0;;
50651;SDS011;61429;52.086;5.240;2022-09-27T03:31:49;6.5;;;1.9;;
50651;SDS011;61429;52.086;5.240;2022-09-27T03:33:25;7.1;;;2.1;;
50651;SDS011;61429;52.086;5.240;2022-09-27T03:35:02;8.5;;;2.21;;
50651;SDS011;61429;52.086;5.240;2022-09-27T03:38:15;6.5;;;2.1;;
50651;SDS011;61429;52.086;5.240;2022-09-27T03:39:52;8.1;;;2.1;;
50651;SDS011;61429;52.086;5.240;2022-09-27T03:41:29;6.7;;;2.5;;
50651;SDS011;61429;52.086;5.240;2022-09-27T03:44:42;7.1;;;2.31;;
50651;SDS011;61429;52.086;5.240;2022-09-27T03:46:18;8.6;;;2.1;;
50651;SDS011;61429;52.086;5.240;2022-09-27T03:47:54;6.5;;;2.31;;
50651;SDS011;61429;52.086;5.240;2022-09-27T03:51:08;6.0;;;2.21;;
50651;SDS011;61429;52.086;5.240;2022-09-27T03:52:45;6.4;;;2.21;;
50651;SDS011;61429;52.086;5.240;2022-09-27T03:54:21;7.1;;;2.0;;
50651;SDS011;61429;52.086;5.240;2022-09-27T03:55:57;7.2;;;2.31;;
50651;SDS011;61429;52.086;5.240;2022-09-27T04:00:46;8.31;;;2.31;;
50651;SDS011;61429;52.086;5.240;2022-09-27T04:02:22;8.1;;;2.31;;
50651;SDS011;61429;52.086;5.240;2022-09-27T04:05:35;7.7;;;2.4;;
50651;SDS011;61429;52.086;5.240;2022-09-27T04:07:11;5.9;;;2.0;;
50651;SDS011;61429;52.086;5.240;2022-09-27T04:08:47;7.1;;;2.0;;
50651;SDS011;61429;52.086;5.240;2022-09-27T04:12:00;7.6;;;2.21;;
50651;SDS011;61429;52.086;5.240;2022-09-27T04:13:36;7.6;;;2.21;;
50651;SDS011;61429;52.086;5.240;2022-09-27T04:15:12;7.7;;;2.0;;
50651;SDS011;61429;52.086;5.240;2022-09-27T04:16:48;6.4;;;2.1;;
50651;SDS011;61429;52.086;5.240;2022-09-27T04:20:02;7.4;;;2.21;;
50651;SDS011;61429;52.086;5.240;2022-09-27T04:21:40;8.2;;;2.21;;
50651;SDS011;61429;52.086;5.240;2022-09-27T04:23:18;7.6;;;2.4;;
50651;SDS011;61429;52.086;5.240;2022-09-27T04:26:32;7.7;;;2.31;;
50651;SDS011;61429;52.086;5.240;2022-09-27T04:28:08;6.6;;;2.1;;
50651;SDS011;61429;52.086;5.240;2022-09-27T04:29:44;6.4;;;2.0;;
50651;SDS011;61429;52.086;5.240;2022-09-27T04:32:56;5.8;;;2.0;;
50651;SDS011;61429;52.086;5.240;2022-09-27T04:37:14;7.3;;;2.31;;
50651;SDS011;61429;52.086;5.240;2022-09-27T04:38:50;8.31;;;2.4;;
50651;SDS011;61429;52.086;5.240;2022-09-27T04:40:27;8.9;;;2.5;;
50651;SDS011;61429;52.086;5.240;2022-09-27T04:42:04;8.71;;;2.4;;
50651;SDS011;61429;52.086;5.240;2022-09-27T04:45:17;7.4;;;2.21;;
50651;SDS011;61429;52.086;5.240;2022-09-27T04:46:54;7.3;;;2.0;;
50651;SDS011;61429;52.086;5.240;2022-09-27T04:48:30;5.9;;;1.9;;
50651;SDS011;61429;52.086;5.240;2022-09-27T04:51:43;6.7;;;2.0;;
50651;SDS011;61429;52.086;5.240;2022-09-27T04:53:20;5.6;;;1.8;;
50651;SDS011;61429;52.086;5.240;2022-09-27T04:54:56;7.2;;;2.1;;
50651;SDS011;61429;52.086;5.240;2022-09-27T04:56:32;5.0;;;1.8;;
50651;SDS011;61429;52.086;5.240;2022-09-27T04:59:44;6.1;;;1.9;;
50651;SDS011;61429;52.086;5.240;2022-09-27T05:01:21;4.91;;;1.8;;
50651;SDS011;61429;52.086;5.240;2022-09-27T05:02:57;5.0;;;1.6;;
50651;SDS011;61429;52.086;5.240;2022-09-27T05:06:09;5.7;;;1.9;;
50651;SDS011;61429;52.086;5.240;2022-09-27T05:07:46;5.7;;;1.8;;
50651;SDS011;61429;52.086;5.240;2022-09-27T05:09:22;5.4;;;1.8;;
50651;SDS011;61429;52.086;5.240;2022-09-27T05:12:34;5.7;;;1.9;;
50651;SDS011;61429;52.086;5.240;2022-09-27T05:14:13;5.11;;;1.9;;
50651;SDS011;61429;52.086;5.240;2022-09-27T05:15:49;4.5;;;2.1;;
50651;SDS011;61429;52.086;5.240;2022-09-27T05:17:25;6.2;;;1.8;;
50651;SDS011;61429;52.086;5.240;2022-09-27T05:20:39;6.5;;;2.0;;
50651;SDS011;61429;52.086;5.240;2022-09-27T05:22:15;7.2;;;2.0;;
50651;SDS011;61429;52.086;5.240;2022-09-27T05:23:53;6.3;;;2.21;;
50651;SDS011;61429;52.086;5.240;2022-09-27T05:27:08;6.8;;;1.9;;
50651;SDS011;61429;52.086;5.240;2022-09-27T05:28:48;5.9;;;1.7;;
50651;SDS011;61429;52.086;5.240;2022-09-27T05:30:24;5.9;;;2.0;;
50651;SDS011;61429;52.086;5.240;2022-09-27T05:32:01;5.11;;;2.0;;
50651;SDS011;61429;52.086;5.240;2022-09-27T05:35:17;4.7;;;1.8;;
50651;SDS011;61429;52.086;5.240;2022-09-27T05:36:53;5.4;;;1.8;;
50651;SDS011;61429;52.086;5.240;2022-09-27T05:38:30;7.0;;;2.5;;
50651;SDS011;61429;52.086;5.240;2022-09-27T05:41:44;5.2;;;1.9;;
50651;SDS011;61429;52.086;5.240;2022-09-27T05:43:21;6.4;;;2.21;;
50651;SDS011;61429;52.086;5.240;2022-09-27T05:44:57;5.6;;;2.0;;
50651;SDS011;61429;52.086;5.240;2022-09-27T05:48:11;6.3;;;2.31;;
50651;SDS011;61429;52.086;5.240;2022-09-27T05:49:48;4.7;;;1.8;;
50651;SDS011;61429;52.086;5.240;2022-09-27T05:51:25;6.1;;;2.31;;
50651;SDS011;61429;52.086;5.240;2022-09-27T05:53:02;6.1;;;2.1;;
50651;SDS011;61429;52.086;5.240;2022-09-27T05:56:16;5.3;;;2.31;;
50651;SDS011;61429;52.086;5.240;2022-09-27T05:57:53;5.9;;;2.21;;
50651;SDS011;61429;52.086;5.240;2022-09-27T05:59:30;6.8;;;2.21;;
50651;SDS011;61429;52.086;5.240;2022-09-27T06:02:43;3.5;;;2.1;;
50651;SDS011;61429;52.086;5.240;2022-09-27T06:04:20;6.5;;;1.9;;
50651;SDS011;61429;52.086;5.240;2022-09-27T06:06:00;5.2;;;2.0;;
50651;SDS011;61429;52.086;5.240;2022-09-27T06:07:38;5.6;;;1.8;;
50651;SDS011;61429;52.086;5.240;2022-09-27T06:10:58;4.0;;;1.8;;
50651;SDS011;61429;52.086;5.240;2022-09-27T06:12:36;3.7;;;1.9;;
50651;SDS011;61429;52.086;5.240;2022-09-27T06:14:13;5.4;;;1.9;;
50651;SDS011;61429;52.086;5.240;2022-09-27T06:17:27;4.91;;;1.7;;
50651;SDS011;61429;52.086;5.240;2022-09-27T06:19:03;6.0;;;1.9;;
50651;SDS011;61429;52.086;5.240;2022-09-27T06:20:41;4.61;;;1.8;;
50651;SDS011;61429;52.086;5.240;2022-09-27T06:22:19;4.61;;;1.9;;
50651;SDS011;61429;52.086;5.240;2022-09-27T06:25:35;3.9;;;1.6;;
50651;SDS011;61429;52.086;5.240;2022-09-27T06:27:12;3.0;;;1.4;;
50651;SDS011;61429;52.086;5.240;2022-09-27T06:28:49;4.8;;;1.4;;
50651;SDS011;61429;52.086;5.240;2022-09-27T06:32:04;4.7;;;1.6;;
50651;SDS011;61429;52.086;5.240;2022-09-27T06:33:39;3.8;;;1.7;;
50651;SDS011;61429;52.086;5.240;2022-09-27T06:35:15;4.41;;;1.7;;
50651;SDS011;61429;52.086;5.240;2022-09-27T06:38:28;4.7;;;1.7;;
50651;SDS011;61429;52.086;5.240;2022-09-27T06:40:05;4.3;;;1.7;;
50651;SDS011;61429;52.086;5.240;2022-09-27T06:41:43;4.2;;;1.8;;
50651;SDS011;61429;52.086;5.240;2022-09-27T06:43:19;6.4;;;2.4;;
50651;SDS011;61429;52.086;5.240;2022-09-27T06:46:32;5.2;;;2.0;;
50651;SDS011;61429;52.086;5.240;2022-09-27T06:48:09;5.2;;;1.9;;
50651;SDS011;61429;52.086;5.240;2022-09-27T06:49:48;5.2;;;1.9;;
50651;SDS011;61429;52.086;5.240;2022-09-27T06:53:02;6.9;;;2.21;;
50651;SDS011;61429;52.086;5.240;2022-09-27T06:54:40;5.2;;;2.21;;
50651;SDS011;61429;52.086;5.240;2022-09-27T06:56:16;3.8;;;1.8;;
50651;SDS011;61429;52.086;5.240;2022-09-27T07:00:47;7.3;;;2.4;;
50651;SDS011;61429;52.086;5.240;2022-09-27T07:02:26;5.4;;;2.21;;
50651;SDS011;61429;52.086;5.240;2022-09-27T07:05:39;5.2;;;2.1;;
50651;SDS011;61429;52.086;5.240;2022-09-27T07:07:17;5.5;;;1.7;;
50651;SDS011;61429;52.086;5.240;2022-09-27T07:08:53;5.9;;;1.7;;
50651;SDS011;61429;52.086;5.240;2022-09-27T07:10:32;5.11;;;1.8;;
50651;SDS011;61429;52.086;5.240;2022-09-27T07:13:48;4.2;;;1.7;;
50651;SDS011;61429;52.086;5.240;2022-09-27T07:15:27;4.3;;;2.0;;
50651;SDS011;61429;52.086;5.240;2022-09-27T07:17:03;7.3;;;2.4;;
50651;SDS011;61429;52.086;5.240;2022-09-27T07:20:16;4.61;;;2.1;;
50651;SDS011;61429;52.086;5.240;2022-09-27T07:21:52;6.1;;;2.7;;
50651;SDS011;61429;52.086;5.240;2022-09-27T07:23:28;5.3;;;2.5;;
50651;SDS011;61429;52.086;5.240;2022-09-27T07:25:05;8.31;;;3.0;;
50651;SDS011;61429;52.086;5.240;2022-09-27T07:28:18;7.2;;;2.9;;
50651;SDS011;61429;52.086;5.240;2022-09-27T07:29:55;6.3;;;2.5;;
50651;SDS011;61429;52.086;5.240;2022-09-27T07:31:31;5.8;;;2.4;;
50651;SDS011;61429;52.086;5.240;2022-09-27T07:34:45;5.7;;;2.5;;
50651;SDS011;61429;52.086;5.240;2022-09-27T07:36:22;5.4;;;2.1;;
50651;SDS011;61429;52.086;5.240;2022-09-27T07:37:58;5.9;;;2.31;;
50651;SDS011;61429;52.086;5.240;2022-09-27T07:41:13;4.91;;;1.9;;
50651;SDS011;61429;52.086;5.240;2022-09-27T07:42:53;7.4;;;2.8;;
50651;SDS011;61429;52.086;5.240;2022-09-27T07:44:30;5.2;;;2.1;;
50651;SDS011;61429;52.086;5.240;2022-09-27T07:46:07;7.4;;;2.31;;
50651;SDS011;61429;52.086;5.240;2022-09-27T07:49:19;6.0;;;2.6;;
50651;SDS011;61429;52.086;5.240;2022-09-27T07:50:55;4.61;;;2.4;;
50651;SDS011;61429;52.086;5.240;2022-09-27T07:52:37;4.61;;;2.31;;
50651;SDS011;61429;52.086;5.240;2022-09-27T07:55:52;6.4;;;2.6;;
50651;SDS011;61429;52.086;5.240;2022-09-27T07:57:29;5.0;;;2.0;;
50651;SDS011;61429;52.086;5.240;2022-09-27T07:59:05;6.2;;;2.21;;
50651;SDS011;61429;52.086;5.240;2022-09-27T08:00:43;5.6;;;2.31;;
50651;SDS011;61429;52.086;5.240;2022-09-27T08:03:57;4.1;;;2.1;;
50651;SDS011;61429;52.086;5.240;2022-09-27T08:05:34;5.2;;;1.8;;
50651;SDS011;61429;52.086;5.240;2022-09-27T08:07:10;6.2;;;2.4;;
50651;SDS011;61429;52.086;5.240;2022-09-27T08:10:26;4.5;;;2.21;;
50651;SDS011;61429;52.086;5.240;2022-09-27T08:12:06;4.41;;;2.1;;
50651;SDS011;61429;52.086;5.240;2022-09-27T08:13:42;5.8;;;2.21;;
50651;SDS011;61429;52.086;5.240;2022-09-27T08:15:19;5.4;;;1.9;;
50651;SDS011;61429;52.086;5.240;2022-09-27T08:18:31;6.5;;;2.1;;
50651;SDS011;61429;52.086;5.240;2022-09-27T08:20:08;5.3;;;2.1;;
50651;SDS011;61429;52.086;5.240;2022-09-27T08:21:44;7.5;;;2.4;;
50651;SDS011;61429;52.086;5.240;2022-09-27T08:24:57;7.1;;;2.6;;
50651;SDS011;61429;52.086;5.240;2022-09-27T08:26:33;5.5;;;2.31;;
50651;SDS011;61429;52.086;5.240;2022-09-27T08:28:10;6.7;;;2.31;;
50651;SDS011;61429;52.086;5.240;2022-09-27T08:31:24;5.11;;;1.8;;
50651;SDS011;61429;52.086;5.240;2022-09-27T08:33:01;4.7;;;1.8;;
50651;SDS011;61429;52.086;5.240;2022-09-27T08:34:37;4.61;;;1.7;;
50651;SDS011;61429;52.086;5.240;2022-09-27T08:36:15;4.3;;;1.7;;
50651;SDS011;61429;52.086;5.240;2022-09-27T08:39:30;4.41;;;1.6;;
50651;SDS011;61429;52.086;5.240;2022-09-27T08:41:07;4.41;;;1.9;;
50651;SDS011;61429;52.086;5.240;2022-09-27T08:42:53;5.9;;;1.8;;
50651;SDS011;61429;52.086;5.240;2022-09-27T08:44:42;4.2;;;1.9;;
50651;SDS011;61429;52.086;5.240;2022-09-27T08:48:20;5.0;;;2.1;;
50651;SDS011;61429;52.086;5.240;2022-09-27T08:50:03;6.3;;;2.21;;
50651;SDS011;61429;52.086;5.240;2022-09-27T08:51:58;3.5;;;1.8;;
50651;SDS011;61429;52.086;5.240;2022-09-27T08:53:36;5.5;;;1.8;;
50651;SDS011;61429;52.086;5.240;2022-09-27T08:55:19;4.0;;;1.7;;
50651;SDS011;61429;52.086;5.240;2022-09-27T08:58:46;4.2;;;1.6;;
50651;SDS011;61429;52.086;5.240;2022-09-27T09:00:27;5.4;;;2.21;;
50651;SDS011;61429;52.086;5.240;2022-09-27T09:02:05;10.0;;;1.8;;
50651;SDS011;61429;52.086;5.240;2022-09-27T09:03:52;6.7;;;1.8;;
50651;SDS011;61429;52.086;5.240;2022-09-27T09:05:31;4.3;;;1.6;;
50651;SDS011;61429;52.086;5.240;2022-09-27T09:09:07;4.61;;;1.7;;
50651;SDS011;61429;52.086;5.240;2022-09-27T09:14:00;5.11;;;1.7;;
50651;SDS011;61429;52.086;5.240;2022-09-27T09:17:31;4.2;;;1.4;;
50651;SDS011;61429;52.086;5.240;2022-09-27T09:19:25;4.8;;;1.6;;
50651;SDS011;61429;52.086;5.240;2022-09-27T09:21:19;4.0;;;1.5;;
50651;SDS011;61429;52.086;5.240;2022-09-27T09:23:09;3.2;;;1.4;;
50651;SDS011;61429;52.086;5.240;2022-09-27T09:25:08;3.4;;;1.5;;
50651;SDS011;61429;52.086;5.240;2022-09-27T09:26:58;2.8;;;1.4;;
50651;SDS011;61429;52.086;5.240;2022-09-27T09:28:48;3.3;;;1.3;;
50651;SDS011;61429;52.086;5.240;2022-09-27T09:30:39;3.7;;;1.5;;
50651;SDS011;61429;52.086;5.240;2022-09-27T09:34:16;3.1;;;1.4;;
50651;SDS011;61429;52.086;5.240;2022-09-27T09:36:00;2.8;;;1.3;;
50651;SDS011;61429;52.086;5.240;2022-09-27T09:37:44;3.4;;;1.3;;
50651;SDS011;61429;52.086;5.240;2022-09-27T09:39:25;3.4;;;1.6;;
50651;SDS011;61429;52.086;5.240;2022-09-27T09:41:10;1.9;;;1.2;;
50651;SDS011;61429;52.086;5.240;2022-09-27T09:44:38;3.2;;;1.5;;
50651;SDS011;61429;52.086;5.240;2022-09-27T09:46:22;4.41;;;2.1;;
50651;SDS011;61429;52.086;5.240;2022-09-27T09:48:06;4.2;;;1.7;;
50651;SDS011;61429;52.086;5.240;2022-09-27T09:49:52;2.1;;;1.3;;
50651;SDS011;61429;52.086;5.240;2022-09-27T09:51:35;2.8;;;1.3;;
50651;SDS011;61429;52.086;5.240;2022-09-27T09:55:06;2.4;;;1.3;;
50651;SDS011;61429;52.086;5.240;2022-09-27T09:56:55;2.8;;;1.3;;
50651;SDS011;61429;52.086;5.240;2022-09-27T09:58:39;2.5;;;1.11;;
50651;SDS011;61429;52.086;5.240;2022-09-27T10:00:19;2.9;;;1.3;;
50651;SDS011;61429;52.086;5.240;2022-09-27T10:01:57;2.8;;;1.6;;
50651;SDS011;61429;52.086;5.240;2022-09-27T10:05:26;2.4;;;1.4;;
50651;SDS011;61429;52.086;5.240;2022-09-27T10:07:03;3.0;;;1.8;;
50651;SDS011;61429;52.086;5.240;2022-09-27T10:08:39;2.6;;;1.6;;
50651;SDS011;61429;52.086;5.240;2022-09-27T10:10:16;2.7;;;1.5;;
50651;SDS011;61429;52.086;5.240;2022-09-27T10:13:32;2.7;;;1.3;;
50651;SDS011;61429;52.086;5.240;2022-09-27T10:15:12;3.6;;;1.8;;
50651;SDS011;61429;52.086;5.240;2022-09-27T10:16:54;3.5;;;2.1;;
50651;SDS011;61429;52.086;5.240;2022-09-27T10:20:16;2.9;;;1.7;;
50651;SDS011;61429;52.086;5.240;2022-09-27T10:22:09;3.7;;;1.7;;
50651;SDS011;61429;52.086;5.240;2022-09-27T10:24:08;3.9;;;1.6;;
50651;SDS011;61429;52.086;5.240;2022-09-27T10:25:48;3.2;;;1.5;;
50651;SDS011;61429;52.086;5.240;2022-09-27T10:27:36;1.7;;;1.4;;
50651;SDS011;61429;52.086;5.240;2022-09-27T10:29:19;5.3;;;1.8;;
50651;SDS011;61429;52.086;5.240;2022-09-27T10:32:38;4.41;;;1.9;;
50651;SDS011;61429;52.086;5.240;2022-09-27T10:34:17;3.7;;;1.9;;
50651;SDS011;61429;52.086;5.240;2022-09-27T10:35:59;5.0;;;1.9;;
50651;SDS011;61429;52.086;5.240;2022-09-27T10:37:37;4.1;;;1.8;;
50651;SDS011;61429;52.086;5.240;2022-09-27T10:40:58;3.4;;;1.2;;
50651;SDS011;61429;52.086;5.240;2022-09-27T10:42:52;2.8;;;1.3;;
50651;SDS011;61429;52.086;5.240;2022-09-27T10:44:29;4.2;;;2.21;;
50651;SDS011;61429;52.086;5.240;2022-09-27T10:46:11;4.2;;;2.21;;
50651;SDS011;61429;52.086;5.240;2022-09-27T10:47:58;3.5;;;1.4;;
50651;SDS011;61429;52.086;5.240;2022-09-27T10:51:24;3.9;;;1.7;;
50651;SDS011;61429;52.086;5.240;2022-09-27T10:53:05;5.2;;;1.9;;
50651;SDS011;61429;52.086;5.240;2022-09-27T10:54:53;3.0;;;1.4;;
50651;SDS011;61429;52.086;5.240;2022-09-27T10:56:31;2.4;;;1.4;;
50651;SDS011;61429;52.086;5.240;2022-09-27T10:59:54;3.7;;;1.4;;
50651;SDS011;61429;52.086;5.240;2022-09-27T11:01:37;2.8;;;1.4;;
50651;SDS011;61429;52.086;5.240;2022-09-27T11:03:18;3.4;;;1.4;;
50651;SDS011;61429;52.086;5.240;2022-09-27T11:05:04;4.0;;;1.7;;
50651;SDS011;61429;52.086;5.240;2022-09-27T11:08:23;3.7;;;1.3;;
50651;SDS011;61429;52.086;5.240;2022-09-27T11:10:18;3.0;;;1.5;;
50651;SDS011;61429;52.086;5.240;2022-09-27T11:13:56;4.2;;;1.4;;
50651;SDS011;61429;52.086;5.240;2022-09-27T11:15:36;2.4;;;1.3;;
50651;SDS011;61429;52.086;5.240;2022-09-27T11:17:25;2.6;;;1.4;;
50651;SDS011;61429;52.086;5.240;2022-09-27T11:21:07;4.0;;;1.7;;
50651;SDS011;61429;52.086;5.240;2022-09-27T11:23:01;4.0;;;1.5;;
50651;SDS011;61429;52.086;5.240;2022-09-27T11:25:57;4.2;;;1.6;;
50651;SDS011;61429;52.086;5.240;2022-09-27T11:27:50;2.9;;;1.3;;
50651;SDS011;61429;52.086;5.240;2022-09-27T11:31:31;2.9;;;1.2;;
50651;SDS011;61429;52.086;5.240;2022-09-27T11:33:33;2.8;;;1.2;;
50651;SDS011;61429;52.086;5.240;2022-09-27T11:36:17;2.7;;;1.3;;
50651;SDS011;61429;52.086;5.240;2022-09-27T11:38:16;2.7;;;1.4;;
50651;SDS011;61429;52.086;5.240;2022-09-27T11:41:51;2.6;;;1.4;;
50651;SDS011;61429;52.086;5.240;2022-09-27T11:43:44;5.11;;;2.9;;
50651;SDS011;61429;52.086;5.240;2022-09-27T11:45:39;2.9;;;1.6;;
50651;SDS011;61429;52.086;5.240;2022-09-27T11:47:29;2.8;;;1.5;;
50651;SDS011;61429;52.086;5.240;2022-09-27T11:49:23;2.21;;;1.3;;
50651;SDS011;61429;52.086;5.240;2022-09-27T11:52:57;2.5;;;1.2;;
50651;SDS011;61429;52.086;5.240;2022-09-27T11:56:47;1.8;;;1.0;;
50651;SDS011;61429;52.086;5.240;2022-09-27T11:58:36;1.8;;;1.2;;
50651;SDS011;61429;52.086;5.240;2022-09-27T12:00:35;2.5;;;1.11;;
50651;SDS011;61429;52.086;5.240;2022-09-27T12:02:30;2.0;;;1.4;;
50651;SDS011;61429;52.086;5.240;2022-09-27T12:04:27;2.7;;;1.3;;
50651;SDS011;61429;52.086;5.240;2022-09-27T12:06:38;4.41;;;2.8;;
50651;SDS011;61429;52.086;5.240;2022-09-27T12:08:28;3.4;;;1.5;;
50651;SDS011;61429;52.086;5.240;2022-09-27T12:10:16;2.9;;;1.5;;
50651;SDS011;61429;52.086;5.240;2022-09-27T12:11:54;2.31;;;1.2;;
50651;SDS011;61429;52.086;5.240;2022-09-27T12:15:19;2.31;;;1.4;;
50651;SDS011;61429;52.086;5.240;2022-09-27T12:16:58;3.8;;;1.5;;
50651;SDS011;61429;52.086;5.240;2022-09-27T12:18:38;2.9;;;1.3;;
50651;SDS011;61429;52.086;5.240;2022-09-27T12:20:18;2.5;;;1.3;;
50651;SDS011;61429;52.086;5.240;2022-09-27T12:23:39;2.31;;;1.3;;
50651;SDS011;61429;52.086;5.240;2022-09-27T12:25:17;4.1;;;1.4;;
50651;SDS011;61429;52.086;5.240;2022-09-27T12:26:55;2.6;;;1.4;;
50651;SDS011;61429;52.086;5.240;2022-09-27T12:28:42;2.31;;;1.3;;
50651;SDS011;61429;52.086;5.240;2022-09-27T12:32:01;2.0;;;1.2;;
50651;SDS011;61429;52.086;5.240;2022-09-27T12:33:47;3.1;;;1.3;;
50651;SDS011;61429;52.086;5.240;2022-09-27T12:35:31;3.6;;;1.2;;
50651;SDS011;61429;52.086;5.240;2022-09-27T12:37:17;2.5;;;1.2;;
50651;SDS011;61429;52.086;5.240;2022-09-27T12:38:59;3.0;;;1.4;;
50651;SDS011;61429;52.086;5.240;2022-09-27T12:42:24;2.5;;;1.2;;
50651;SDS011;61429;52.086;5.240;2022-09-27T12:44:06;2.4;;;1.2;;
50651;SDS011;61429;52.086;5.240;2022-09-27T12:45:48;2.4;;;1.0;;
50651;SDS011;61429;52.086;5.240;2022-09-27T12:47:37;2.0;;;1.2;;
50651;SDS011;61429;52.086;5.240;2022-09-27T12:49:31;2.0;;;1.2;;
50651;SDS011;61429;52.086;5.240;2022-09-27T12:51:20;3.0;;;1.4;;
50651;SDS011;61429;52.086;5.240;2022-09-27T12:54:48;3.8;;;1.9;;
50651;SDS011;61429;52.086;5.240;2022-09-27T12:56:43;4.1;;;1.7;;
50651;SDS011;61429;52.086;5.240;2022-09-27T12:58:36;3.4;;;1.6;;
50651;SDS011;61429;52.086;5.240;2022-09-27T13:01:32;6.4;;;2.21;;
50651;SDS011;61429;52.086;5.240;2022-09-27T13:03:33;4.2;;;1.8;;
50651;SDS011;61429;52.086;5.240;2022-09-27T13:05:32;4.8;;;1.7;;
50651;SDS011;61429;52.086;5.240;2022-09-27T13:08:01;2.9;;;1.5;;
50651;SDS011;61429;52.086;5.240;2022-09-27T13:10:05;5.3;;;1.8;;
50651;SDS011;61429;52.086;5.240;2022-09-27T13:12:05;4.5;;;1.7;;
50651;SDS011;61429;52.086;5.240;2022-09-27T13:13:44;5.9;;;2.0;;
50651;SDS011;61429;52.086;5.240;2022-09-27T13:15:24;5.2;;;2.0;;
50651;SDS011;61429;52.086;5.240;2022-09-27T13:17:30;3.8;;;1.9;;
50651;SDS011;61429;52.086;5.240;2022-09-27T13:19:13;3.6;;;1.8;;
50651;SDS011;61429;52.086;5.240;2022-09-27T13:21:52;3.3;;;1.6;;
50651;SDS011;61429;52.086;5.240;2022-09-27T13:23:48;3.0;;;1.5;;